createdAt,value
2018-10-16T00:01:43.391Z,101057.06
2018-10-16T00:04:47.977Z,101056.88
2018-10-16T00:07:51.896Z,101064.44
2018-10-16T00:10:55.822Z,101067.47
2018-10-16T00:13:59.755Z,101062.40
2018-10-16T00:17:04.267Z,101067.84
2018-10-16T00:20:08.199Z,101062.55
2018-10-16T00:23:12.139Z,101064.52
2018-10-16T00:26:16.080Z,101072.00
2018-10-16T00:29:20.516Z,101068.86
2018-10-16T00:32:24.461Z,101064.63
2018-10-16T00:35:28.396Z,101073.97
2018-10-16T00:38:32.361Z,101075.03
2018-10-16T00:41:36.572Z,101079.34
2018-10-16T00:44:40.521Z,101081.53
2018-10-16T00:47:44.657Z,101088.48
2018-10-16T00:50:48.592Z,101093.37
2018-10-16T00:53:52.851Z,101091.89
2018-10-16T00:56:57.154Z,101081.34
2018-10-16T01:00:01.282Z,101088.22
2018-10-16T01:03:05.486Z,101085.56
2018-10-16T01:06:09.606Z,101091.66
2018-10-16T01:09:14.549Z,101095.20
2018-10-16T01:12:18.498Z,101091.54
2018-10-16T01:15:22.436Z,101096.80
2018-10-16T01:18:26.583Z,101093.84
2018-10-16T01:21:30.555Z,101099.89
2018-10-16T01:24:35.134Z,101088.34
2018-10-16T01:27:39.666Z,101087.70
2018-10-16T01:30:43.579Z,101092.85
2018-10-16T01:33:47.534Z,101092.05
2018-10-16T01:36:51.701Z,101094.84
2018-10-16T01:39:55.622Z,101100.89
2018-10-16T01:42:59.554Z,101086.38
2018-10-16T01:46:03.711Z,101087.84
2018-10-16T01:49:07.635Z,101088.75
2018-10-16T01:52:11.570Z,101091.39
2018-10-16T01:55:15.691Z,101093.27
2018-10-16T01:58:19.959Z,101087.67
2018-10-16T02:01:24.232Z,101091.98
2018-10-16T02:04:28.154Z,101095.08
2018-10-16T02:07:32.089Z,101095.98
2018-10-16T02:10:36.044Z,101097.89
2018-10-16T02:13:39.963Z,101100.84
2018-10-16T02:16:43.904Z,101102.20
2018-10-16T02:19:47.843Z,101104.46
2018-10-16T02:22:51.761Z,101106.96
2018-10-16T02:25:55.676Z,101111.58
2018-10-16T02:28:59.603Z,101108.24
2018-10-16T02:32:03.536Z,101112.30
2018-10-16T02:35:08.396Z,101113.20
2018-10-16T02:38:12.553Z,101111.13
2018-10-16T02:41:16.469Z,101113.14
2018-10-16T02:44:20.614Z,101115.05
2018-10-16T02:47:24.534Z,101111.13
2018-10-16T02:50:28.807Z,101113.31
2018-10-16T02:53:32.727Z,101111.92
2018-10-16T02:56:36.647Z,101111.27
2018-10-16T02:59:40.765Z,101112.11
2018-10-16T03:02:44.979Z,101114.87
2018-10-16T03:05:48.896Z,101116.34
2018-10-16T03:08:53.056Z,101122.97
2018-10-16T03:11:57.329Z,101121.16
2018-10-16T03:15:01.254Z,101117.38
2018-10-16T03:18:05.598Z,101120.33
2018-10-16T03:21:09.841Z,101124.19
2018-10-16T03:24:13.780Z,101126.05
2018-10-16T03:27:18.040Z,101122.89
2018-10-16T03:30:22.205Z,101127.78
2018-10-16T03:33:26.120Z,101123.48
2018-10-16T03:36:30.379Z,101124.63
2018-10-16T03:39:34.299Z,101121.81
2018-10-16T03:42:39.372Z,101118.00
2018-10-16T03:45:43.279Z,101124.56
2018-10-16T03:48:47.402Z,101128.55
2018-10-16T03:51:51.530Z,101133.16
2018-10-16T03:54:55.467Z,101128.78
2018-10-16T03:57:59.592Z,101121.53
2018-10-16T04:01:03.523Z,101121.53
2018-10-16T04:04:07.781Z,101123.72
2018-10-16T04:07:12.023Z,101128.98
2018-10-16T04:10:15.930Z,101131.56
2018-10-16T04:13:19.873Z,101131.95
2018-10-16T04:16:23.815Z,101130.36
2018-10-16T04:19:27.723Z,101125.66
2018-10-16T04:22:31.720Z,101124.44
2018-10-16T04:25:35.766Z,101122.86
2018-10-16T04:28:39.781Z,101126.40
2018-10-16T04:31:43.702Z,101132.23
2018-10-16T04:34:47.621Z,101133.91
2018-10-16T04:37:51.547Z,101135.25
2018-10-16T04:40:55.633Z,101135.53
2018-10-16T04:43:59.759Z,101138.55
2018-10-16T04:47:03.675Z,101143.62
2018-10-16T04:50:08.011Z,101137.34
2018-10-16T04:53:11.907Z,101138.87
2018-10-16T04:56:16.180Z,101140.61
2018-10-16T04:59:20.099Z,101150.81
2018-10-16T05:02:24.043Z,101142.34
2018-10-16T05:05:28.009Z,101145.03
2018-10-16T05:08:31.943Z,101145.87
2018-10-16T05:11:40.024Z,101145.08
2018-10-16T05:14:43.975Z,101156.17
2018-10-16T05:17:47.903Z,101149.44
2018-10-16T05:20:51.832Z,101159.26
2018-10-16T05:23:55.756Z,101164.46
2018-10-16T05:26:59.704Z,101167.16
2018-10-16T05:30:03.942Z,101176.20
2018-10-16T05:33:07.885Z,101183.78
2018-10-16T05:36:12.140Z,101178.33
2018-10-16T05:39:16.090Z,101178.04
2018-10-16T05:42:20.207Z,101181.05
2018-10-16T05:45:25.661Z,101184.59
2018-10-16T05:48:29.602Z,101184.13
2018-10-16T05:51:33.517Z,101184.52
2018-10-16T05:54:37.452Z,101187.60
2018-10-16T05:57:41.374Z,101187.60
2018-10-16T06:00:46.557Z,101195.87
2018-10-16T06:03:50.663Z,101194.98
2018-10-16T06:06:55.167Z,101207.75
2018-10-16T06:09:59.092Z,101204.45
2018-10-16T06:13:03.086Z,101202.52
2018-10-16T06:16:07.032Z,101206.72
2018-10-16T06:19:11.148Z,101209.38
2018-10-16T06:22:15.076Z,101212.03
2018-10-16T06:25:19.019Z,101220.76
2018-10-16T06:28:24.537Z,101228.30
2018-10-16T06:31:28.492Z,101228.55
2018-10-16T06:34:32.407Z,101238.46
2018-10-16T06:37:36.400Z,101242.47
2018-10-16T06:40:40.396Z,101241.74
2018-10-16T06:43:44.498Z,101253.07
2018-10-16T06:46:48.604Z,101253.59
2018-10-16T06:49:52.726Z,101252.42
2018-10-16T06:52:56.654Z,101259.89
2018-10-16T06:56:00.586Z,101256.14
2018-10-16T06:59:04.660Z,101260.97
2018-10-16T07:02:08.889Z,101267.45
2018-10-16T07:05:13.155Z,101266.72
2018-10-16T07:08:17.444Z,101268.00
2018-10-16T07:11:21.366Z,101273.23
2018-10-16T07:14:25.296Z,101271.47
2018-10-16T07:17:29.189Z,101276.21
2018-10-16T07:20:33.119Z,101279.28
2018-10-16T07:23:37.153Z,101283.12
2018-10-16T07:26:41.175Z,101286.61
2018-10-16T07:29:45.078Z,101290.13
2018-10-16T07:32:49.344Z,101292.74
2018-10-16T07:35:53.265Z,101294.19
2018-10-16T07:38:57.515Z,101293.84
2018-10-16T07:42:01.854Z,101293.11
2018-10-16T07:45:06.750Z,101288.10
2018-10-16T07:48:10.856Z,101292.52
2018-10-16T07:51:14.964Z,101290.39
2018-10-16T07:54:19.295Z,101290.03
2018-10-16T07:57:23.662Z,101293.46
2018-10-16T08:00:28.015Z,101304.54
2018-10-16T08:03:31.938Z,101308.00
2018-10-16T08:06:35.887Z,101307.39
2018-10-16T08:09:39.796Z,101312.01
2018-10-16T08:12:44.460Z,101314.34
2018-10-16T08:15:48.340Z,101317.12
2018-10-16T08:18:52.267Z,101315.66
2018-10-16T08:21:56.195Z,101319.36
2018-10-16T08:25:00.650Z,101319.62
2018-10-16T08:28:04.787Z,101314.73
2018-10-16T08:31:08.712Z,101319.78
2018-10-16T08:34:12.869Z,101315.34
2018-10-16T08:37:22.879Z,101317.92
2018-10-16T08:40:26.884Z,101325.64
2018-10-16T08:43:42.772Z,101314.86
2018-10-16T08:46:58.037Z,101318.78
2018-10-16T08:50:13.496Z,101321.93
2018-10-16T08:53:17.433Z,101324.93
2018-10-16T08:56:21.708Z,101323.41
2018-10-16T08:59:26.338Z,101322.67
2018-10-16T09:02:30.290Z,101320.22
2018-10-16T09:05:34.211Z,101321.97
2018-10-16T09:08:38.171Z,101318.22
2018-10-16T09:11:42.804Z,101318.59
2018-10-16T09:14:46.739Z,101324.63
2018-10-16T09:17:50.676Z,101321.61
2018-10-16T09:20:55.327Z,101327.16
2018-10-16T09:23:59.247Z,101328.01
2018-10-16T09:27:03.391Z,101330.16
2018-10-16T09:30:09.623Z,101329.28
2018-10-16T09:33:13.530Z,101336.48
2018-10-16T09:36:18.048Z,101346.39
2018-10-16T09:39:21.999Z,101345.58
2018-10-16T09:42:26.259Z,101353.70
2018-10-16T09:45:30.177Z,101355.01
2018-10-16T09:48:34.130Z,101358.91
2018-10-16T09:51:38.068Z,101358.52
2018-10-16T09:54:42.251Z,101356.39
2018-10-16T09:57:46.178Z,101360.36
2018-10-16T10:00:56.089Z,101357.03
2018-10-16T10:04:00.116Z,101369.59
2018-10-16T10:07:04.229Z,101370.89
2018-10-16T10:10:08.342Z,101366.64
2018-10-16T10:13:12.267Z,101369.66
2018-10-16T10:16:16.192Z,101363.28
2018-10-16T10:19:20.121Z,101358.18
2018-10-16T10:22:24.247Z,101362.06
2018-10-16T10:25:28.173Z,101359.06
2018-10-16T10:28:32.106Z,101351.84
2018-10-16T10:31:36.058Z,101355.68
2018-10-16T10:34:40.174Z,101345.85
2018-10-16T10:37:44.273Z,101349.80
2018-10-16T10:40:48.398Z,101345.16
2018-10-16T10:43:52.320Z,101346.14
2018-10-16T10:46:56.246Z,101346.22
2018-10-16T10:50:00.644Z,101349.34
2018-10-16T10:53:04.909Z,101349.52
2018-10-16T10:56:08.822Z,101348.84
2018-10-16T10:59:12.737Z,101347.69
2018-10-16T11:02:16.694Z,101349.64
2018-10-16T11:05:20.970Z,101346.36
2018-10-16T11:08:24.978Z,101350.05
2018-10-16T11:11:28.931Z,101347.27
2018-10-16T11:14:33.206Z,101347.88
2018-10-16T11:17:37.903Z,101348.97
2018-10-16T11:20:41.826Z,101345.80
2018-10-16T11:23:45.753Z,101345.97
2018-10-16T11:26:49.750Z,101347.05
2018-10-16T11:29:53.674Z,101347.70
2018-10-16T11:32:57.628Z,101347.98
2018-10-16T11:36:02.086Z,101352.03
2018-10-16T11:39:08.747Z,101352.17
2018-10-16T11:42:12.787Z,101349.75
2018-10-16T11:45:16.723Z,101352.13
2018-10-16T11:48:20.666Z,101354.51
2018-10-16T11:51:24.819Z,101352.91
2018-10-16T11:54:28.749Z,101355.29
2018-10-16T11:57:32.720Z,101352.00
2018-10-16T12:00:36.991Z,101356.08
2018-10-16T12:03:40.927Z,101352.31
2018-10-16T12:06:45.203Z,101347.72
2018-10-16T12:09:49.360Z,101353.92
2018-10-16T12:12:53.332Z,101353.34
2018-10-16T12:15:57.416Z,101358.31
2018-10-16T12:19:06.141Z,101358.45
2018-10-16T12:22:10.582Z,101360.86
2018-10-16T12:25:14.755Z,101358.03
2018-10-16T12:28:18.856Z,101357.81
2018-10-16T12:31:22.803Z,101348.52
2018-10-16T12:34:26.998Z,101349.95
2018-10-16T12:37:30.914Z,101348.06
2018-10-16T12:40:34.854Z,101349.50
2018-10-16T12:43:38.942Z,101350.25
2018-10-16T12:46:42.922Z,101353.45
2018-10-16T12:49:46.866Z,101344.59
2018-10-16T12:52:50.831Z,101339.16
2018-10-16T12:55:54.967Z,101344.67
2018-10-16T12:58:59.088Z,101347.62
2018-10-16T13:02:03.520Z,101339.71
2018-10-16T13:05:07.676Z,101343.50
2018-10-16T13:08:12.266Z,101339.84
2018-10-16T13:11:16.688Z,101338.89
2018-10-16T13:14:20.751Z,101343.55
2018-10-16T13:17:25.004Z,101342.60
2018-10-16T13:20:29.382Z,101341.19
2018-10-16T13:23:33.350Z,101351.95
2018-10-16T13:26:37.768Z,101349.59
2018-10-16T13:29:41.761Z,101343.44
2018-10-16T13:32:46.691Z,101344.16
2018-10-16T13:35:50.639Z,101340.64
2018-10-16T13:38:54.555Z,101342.18
2018-10-16T13:41:58.517Z,101341.23
2018-10-16T13:45:03.108Z,101342.42
2018-10-16T13:48:07.436Z,101346.68
2018-10-16T13:51:11.382Z,101355.67
2018-10-16T13:54:15.506Z,101353.90
2018-10-16T13:57:19.451Z,101354.26
2018-10-16T14:00:23.745Z,101352.02
2018-10-16T14:03:27.704Z,101348.11
2018-10-16T14:06:31.685Z,101353.59
2018-10-16T14:09:35.629Z,101359.63
2018-10-16T14:12:40.850Z,101364.23
2018-10-16T14:15:44.795Z,101365.54
2018-10-16T14:18:48.736Z,101361.05
2018-10-16T14:21:52.695Z,101358.80
2018-10-16T14:24:57.162Z,101357.38
2018-10-16T14:28:01.453Z,101362.12
2018-10-16T14:31:05.866Z,101364.72
2018-10-16T14:34:10.071Z,101360.10
2018-10-16T14:37:14.129Z,101353.23
2018-10-16T14:40:18.120Z,101356.67
2018-10-16T14:43:22.264Z,101356.42
2018-10-16T14:46:26.452Z,101355.13
2018-10-16T14:49:30.709Z,101356.55
2018-10-16T14:52:34.877Z,101353.47
2018-10-16T14:55:38.807Z,101360.45
2018-10-16T14:58:42.728Z,101357.97
2018-10-16T15:01:46.990Z,101352.75
2018-10-16T15:04:51.037Z,101355.83
2018-10-16T15:07:54.951Z,101353.70
2018-10-16T15:10:59.407Z,101350.35
2018-10-16T15:14:03.594Z,101355.56
2018-10-16T15:17:07.695Z,101352.95
2018-10-16T15:20:12.053Z,101352.60
2018-10-16T15:23:16.083Z,101357.92
2018-10-16T15:26:20.011Z,101358.39
2018-10-16T15:29:23.939Z,101353.19
2018-10-16T15:32:27.875Z,101361.11
2018-10-16T15:35:32.165Z,101362.53
2018-10-16T15:38:36.231Z,101363.95
2018-10-16T15:41:40.509Z,101364.06
2018-10-16T15:44:44.754Z,101370.41
2018-10-16T15:47:48.710Z,101378.44
2018-10-16T15:50:52.685Z,101382.58
2018-10-16T15:53:56.815Z,101382.30
2018-10-16T15:57:00.879Z,101382.17
2018-10-16T16:00:07.176Z,101382.87
2018-10-16T16:03:11.235Z,101386.58
2018-10-16T16:06:15.170Z,101382.90
2018-10-16T16:09:19.081Z,101383.13
2018-10-16T16:12:23.029Z,101391.98
2018-10-16T16:15:27.132Z,101385.78
2018-10-16T16:18:31.095Z,101392.98
2018-10-16T16:21:35.186Z,101396.71
2018-10-16T16:24:39.186Z,101400.37
2018-10-16T16:27:43.460Z,101397.27
2018-10-16T16:30:47.578Z,101403.13
2018-10-16T16:33:51.530Z,101400.50
2018-10-16T16:36:57.363Z,101402.09
2018-10-16T16:40:01.704Z,101410.70
2018-10-16T16:43:06.027Z,101413.26
2018-10-16T16:46:10.041Z,101408.36
2018-10-16T16:49:14.091Z,101414.81
2018-10-16T16:52:18.014Z,101418.17
2018-10-16T16:55:22.274Z,101419.44
2018-10-16T16:58:26.216Z,101426.22
2018-10-16T17:01:30.154Z,101423.01
2018-10-16T17:04:34.117Z,101425.17
2018-10-16T17:07:38.219Z,101421.09
2018-10-16T17:10:42.487Z,101421.02
2018-10-16T17:13:46.446Z,101427.83
2018-10-16T17:16:50.691Z,101432.86
2018-10-16T17:19:54.601Z,101433.98
2018-10-16T17:22:58.767Z,101432.63
2018-10-16T17:26:02.960Z,101428.65
2018-10-16T17:29:06.885Z,101438.41
2018-10-16T17:32:10.834Z,101438.72
2018-10-16T17:35:15.110Z,101442.42
2018-10-16T17:38:19.041Z,101442.27
2018-10-16T17:41:22.954Z,101442.55
2018-10-16T17:44:27.218Z,101444.51
2018-10-16T17:47:31.165Z,101446.95
2018-10-16T17:50:35.271Z,101448.88
2018-10-16T17:53:39.202Z,101456.03
2018-10-16T17:56:43.438Z,101456.23
2018-10-16T17:59:47.342Z,101454.75
2018-10-16T18:02:51.495Z,101453.28
2018-10-16T18:05:55.577Z,101460.34
2018-10-16T18:08:59.539Z,101462.30
2018-10-16T18:12:03.849Z,101465.06
2018-10-16T18:15:09.698Z,101463.96
2018-10-16T18:18:13.830Z,101465.92
2018-10-16T18:21:17.948Z,101468.69
2018-10-16T18:24:21.874Z,101472.77
2018-10-16T18:27:25.803Z,101475.46
2018-10-16T18:30:29.714Z,101473.86
2018-10-16T18:33:33.651Z,101479.68
2018-10-16T18:36:37.567Z,101477.28
2018-10-16T18:39:41.587Z,101477.02
2018-10-16T18:42:45.937Z,101484.42
2018-10-16T18:45:49.872Z,101478.14
2018-10-16T18:48:53.808Z,101484.69
2018-10-16T18:51:57.951Z,101481.45
2018-10-16T18:55:01.855Z,101479.42
2018-10-16T18:58:06.338Z,101475.27
2018-10-16T19:01:10.232Z,101472.00
2018-10-16T19:04:14.186Z,101468.67
2018-10-16T19:07:18.331Z,101471.82
2018-10-16T19:10:22.251Z,101470.25
2018-10-16T19:13:26.307Z,101469.98
2018-10-16T19:16:30.214Z,101473.10
2018-10-16T19:19:34.144Z,101468.94
2018-10-16T19:22:38.087Z,101465.98
2018-10-16T19:25:42.027Z,101467.47
2018-10-16T19:28:45.955Z,101470.16
2018-10-16T19:31:49.884Z,101468.55
2018-10-16T19:34:54.031Z,101470.78
2018-10-16T19:37:58.061Z,101462.73
2018-10-16T19:41:02.103Z,101459.03
2018-10-16T19:44:06.090Z,101469.03
2018-10-16T19:47:10.026Z,101464.84
2018-10-16T19:50:14.279Z,101461.60
2018-10-16T19:53:18.267Z,101467.34
2018-10-16T19:56:22.199Z,101461.89
2018-10-16T19:59:26.106Z,101466.23
2018-10-16T20:02:30.040Z,101462.97
2018-10-16T20:05:33.982Z,101465.28
2018-10-16T20:08:37.898Z,101466.20
2018-10-16T20:11:42.033Z,101463.80
2018-10-16T20:14:46.143Z,101460.11
2018-10-16T20:17:50.071Z,101461.55
2018-10-16T20:20:54.045Z,101464.70
2018-10-16T20:23:58.138Z,101464.98
2018-10-16T20:27:02.399Z,101460.32
2018-10-16T20:30:07.434Z,101470.41
2018-10-16T20:33:11.926Z,101467.16
2018-10-16T20:36:16.191Z,101463.92
2018-10-16T20:39:20.335Z,101465.84
2018-10-16T20:42:24.246Z,101462.47
2018-10-16T20:45:28.196Z,101463.12
2018-10-16T20:48:32.139Z,101462.44
2018-10-16T20:51:36.954Z,101463.91
2018-10-16T20:54:40.883Z,101469.73
2018-10-16T20:57:44.837Z,101468.62
2018-10-16T21:01:05.775Z,101468.77
2018-10-16T21:04:16.903Z,101462.94
2018-10-16T21:07:21.777Z,101467.14
2018-10-16T21:10:27.978Z,101466.86
2018-10-16T21:13:32.652Z,101462.42
2018-10-16T21:16:37.034Z,101465.09
2018-10-16T21:19:41.499Z,101454.52
2018-10-16T21:22:46.013Z,101462.17
2018-10-16T21:25:50.396Z,101458.52
2018-10-16T21:28:54.852Z,101464.70
2018-10-16T21:31:59.416Z,101455.00
2018-10-16T21:35:05.040Z,101455.23
2018-10-16T21:38:09.673Z,101452.44
2018-10-16T21:41:14.104Z,101450.95
2018-10-16T21:44:19.002Z,101450.34
2018-10-16T21:47:23.346Z,101448.16
2018-10-16T21:50:27.693Z,101452.50
2018-10-16T21:53:32.038Z,101445.00
2018-10-16T21:56:36.336Z,101446.55
2018-10-16T21:59:40.424Z,101439.85
2018-10-16T22:02:50.068Z,101442.23
2018-10-16T22:05:54.501Z,101446.41
2018-10-16T22:08:58.703Z,101441.11
2018-10-16T22:12:02.963Z,101439.84
2018-10-16T22:15:07.083Z,101435.12
2018-10-16T22:18:11.368Z,101426.70
2018-10-16T22:21:15.526Z,101432.63
2018-10-16T22:24:19.482Z,101426.93
2018-10-16T22:27:23.649Z,101434.30
2018-10-16T22:30:27.535Z,101429.01
2018-10-16T22:33:32.202Z,101431.97
2018-10-16T22:36:36.564Z,101429.31
2018-10-16T22:39:40.725Z,101425.22
2018-10-16T22:42:44.792Z,101424.02
2018-10-16T22:45:49.365Z,101423.40
2018-10-16T22:48:53.712Z,101434.72
2018-10-16T22:51:58.106Z,101427.22
2018-10-16T22:55:02.339Z,101431.22
2018-10-16T22:58:06.670Z,101432.00
2018-10-16T23:01:10.584Z,101425.00
2018-10-16T23:04:14.533Z,101437.08
2018-10-16T23:07:18.734Z,101432.53
2018-10-16T23:10:22.557Z,101432.98
2018-10-16T23:13:26.430Z,101431.15
2018-10-16T23:16:30.996Z,101437.30
2018-10-16T23:19:35.207Z,101440.95
2018-10-16T23:22:39.398Z,101438.42
2018-10-16T23:25:43.580Z,101430.09
2018-10-16T23:28:47.415Z,101426.37
2018-10-16T23:31:55.573Z,101428.86
2018-10-16T23:35:05.513Z,101428.62
2018-10-16T23:38:09.593Z,101418.97
2018-10-16T23:41:13.596Z,101417.38
2018-10-16T23:44:17.652Z,101420.95
2018-10-16T23:47:21.592Z,101421.57
2018-10-16T23:50:25.742Z,101422.94
2018-10-16T23:53:29.657Z,101416.72
2018-10-16T23:56:33.594Z,101423.47
2018-10-16T23:59:37.537Z,101422.41
